createdAt,value
2018-01-01T00:00:19.236Z,5.56
2018-01-01T00:01:19.100Z,5.61
2018-01-01T00:02:19.293Z,5.62
2018-01-01T00:03:19.310Z,5.57
2018-01-01T00:04:19.221Z,5.59
2018-01-01T00:05:19.469Z,5.61
2018-01-01T00:06:19.676Z,5.58
2018-01-01T00:07:19.747Z,5.64
2018-01-01T00:08:20.118Z,5.66
2018-01-01T00:09:20.053Z,5.65
2018-01-01T00:10:19.675Z,5.62
2018-01-01T00:11:20.247Z,5.69
2018-01-01T00:12:19.475Z,5.67
2018-01-01T00:13:19.450Z,5.73
2018-01-01T00:14:19.605Z,5.64
2018-01-01T00:15:20.035Z,5.67
2018-01-01T00:16:19.127Z,5.7
2018-01-01T00:17:20.346Z,5.72
2018-01-01T00:18:19.571Z,5.7
2018-01-01T00:19:19.570Z,5.64
2018-01-01T00:20:19.745Z,5.66
2018-01-01T00:21:19.829Z,5.73
2018-01-01T00:22:19.945Z,5.7
2018-01-01T00:23:20.178Z,5.66
2018-01-01T00:24:20.068Z,5.68
2018-01-01T00:25:19.526Z,5.67
2018-01-01T00:26:19.522Z,5.69
2018-01-01T00:27:19.396Z,5.68
2018-01-01T00:28:19.545Z,5.68
2018-01-01T00:29:19.755Z,5.62
2018-01-01T00:30:20.183Z,5.7
2018-01-01T00:31:20.006Z,5.66
2018-01-01T00:32:20.022Z,5.69
2018-01-01T00:33:20.049Z,5.66
2018-01-01T00:34:19.979Z,5.65
2018-01-01T00:35:19.943Z,5.69
2018-01-01T00:36:19.392Z,5.69
2018-01-01T00:37:20.015Z,5.69
2018-01-01T00:38:20.158Z,5.66
2018-01-01T00:39:19.265Z,5.72
2018-01-01T00:40:19.301Z,5.68
2018-01-01T00:41:19.666Z,5.74
2018-01-01T00:42:19.802Z,5.73
2018-01-01T00:43:19.982Z,5.69
2018-01-01T00:44:20.008Z,5.72
2018-01-01T00:45:19.028Z,5.7
2018-01-01T00:46:20.032Z,5.68
2018-01-01T00:47:19.300Z,5.68
2018-01-01T00:48:19.718Z,5.71
2018-01-01T00:49:19.118Z,5.7
2018-01-01T00:50:19.932Z,5.67
2018-01-01T00:51:20.079Z,5.69
2018-01-01T00:52:20.170Z,5.63
2018-01-01T00:53:19.338Z,5.66
2018-01-01T00:54:19.631Z,5.68
2018-01-01T00:55:20.316Z,5.66
2018-01-01T00:56:19.327Z,5.67
2018-01-01T00:57:19.622Z,5.68
2018-01-01T00:58:19.896Z,5.67
2018-01-01T00:59:19.851Z,5.64
2018-01-01T01:00:19.881Z,5.67
2018-01-01T01:01:19.750Z,5.63
2018-01-01T01:02:18.959Z,5.6
2018-01-01T01:03:19.214Z,5.56
2018-01-01T01:04:19.345Z,5.58
2018-01-01T01:05:19.360Z,5.59
2018-01-01T01:06:19.822Z,5.56
2018-01-01T01:07:19.689Z,5.56
2018-01-01T01:08:19.755Z,5.6
2018-01-01T01:09:20.146Z,5.61
2018-01-01T01:10:19.192Z,5.63
2018-01-01T01:11:19.314Z,5.59
2018-01-01T01:12:19.385Z,5.6
2018-01-01T01:13:19.331Z,5.6
2018-01-01T01:14:19.503Z,5.54
2018-01-01T01:15:19.486Z,5.58
2018-01-01T01:16:19.536Z,5.58
2018-01-01T01:17:19.520Z,5.56
2018-01-01T01:18:19.655Z,5.53
2018-01-01T01:19:19.511Z,5.5
2018-01-01T01:20:19.659Z,5.53
2018-01-01T01:21:19.703Z,5.51
2018-01-01T01:22:19.929Z,5.45
2018-01-01T01:23:20.344Z,5.48
2018-01-01T01:24:19.971Z,5.5
2018-01-01T01:25:19.039Z,5.46
2018-01-01T01:26:19.689Z,5.48
2018-01-01T01:27:19.715Z,5.45
2018-01-01T01:28:19.688Z,5.47
2018-01-01T01:29:19.768Z,5.47
2018-01-01T01:30:19.647Z,5.45
2018-01-01T01:31:19.691Z,5.49
2018-01-01T01:32:19.878Z,5.45
2018-01-01T01:33:19.728Z,5.47
2018-01-01T01:34:19.251Z,5.41
2018-01-01T01:35:19.620Z,5.41
2018-01-01T01:36:19.398Z,5.38
2018-01-01T01:37:19.244Z,5.41
2018-01-01T01:38:19.625Z,5.35
2018-01-01T01:39:19.371Z,5.35
2018-01-01T01:40:19.576Z,5.3
2018-01-01T01:41:19.578Z,5.39
2018-01-01T01:42:19.222Z,5.31
2018-01-01T01:43:19.267Z,5.29
2018-01-01T01:44:19.537Z,5.27
2018-01-01T01:45:19.716Z,5.28
2018-01-01T01:46:19.826Z,5.29
2018-01-01T01:47:19.914Z,5.25
2018-01-01T01:48:19.411Z,5.27
2018-01-01T01:49:19.708Z,5.28
2018-01-01T01:50:20.035Z,5.26
2018-01-01T01:51:18.746Z,5.25
2018-01-01T01:52:19.784Z,5.23
2018-01-01T01:53:19.712Z,5.24
2018-01-01T01:54:19.987Z,5.25
2018-01-01T01:55:19.227Z,5.23
2018-01-01T01:56:19.657Z,5.25
2018-01-01T01:57:19.943Z,5.3
2018-01-01T01:58:20.110Z,5.19
2018-01-01T01:59:19.195Z,5.19
2018-01-01T02:00:19.308Z,5.17
2018-01-01T02:01:19.712Z,5.16
2018-01-01T02:02:19.722Z,5.21
2018-01-01T02:03:19.686Z,5.17
2018-01-01T02:04:19.214Z,5.13
2018-01-01T02:05:19.267Z,5.15
2018-01-01T02:06:19.253Z,5.17
2018-01-01T02:07:19.196Z,5.19
2018-01-01T02:08:19.226Z,5.2
2018-01-01T02:09:19.079Z,5.17
2018-01-01T02:10:18.970Z,5.22
2018-01-01T02:11:18.718Z,5.22
2018-01-01T02:12:18.609Z,5.16
2018-01-01T02:13:18.768Z,5.16
2018-01-01T02:14:19.420Z,5.15
2018-01-01T02:15:19.643Z,5.16
2018-01-01T02:16:18.466Z,5.15
2018-01-01T02:17:18.902Z,5.16
2018-01-01T02:18:18.950Z,5.23
2018-01-01T02:19:19.121Z,5.13
2018-01-01T02:20:19.666Z,5.16
2018-01-01T02:21:18.919Z,5.11
2018-01-01T02:22:19.090Z,5.09
2018-01-01T02:23:19.307Z,5.14
2018-01-01T02:24:19.281Z,5.13
2018-01-01T02:25:19.527Z,5.09
2018-01-01T02:26:19.596Z,5.15
2018-01-01T02:27:19.488Z,5.15
2018-01-01T02:28:19.532Z,5.16
2018-01-01T02:29:19.750Z,5.16
2018-01-01T02:30:18.933Z,5.16
2018-01-01T02:31:18.994Z,5.13
2018-01-01T02:32:19.166Z,5.2
2018-01-01T02:33:19.194Z,5.14
2018-01-01T02:34:19.321Z,5.16
2018-01-01T02:35:19.036Z,5.1
2018-01-01T02:36:18.689Z,5.1
2018-01-01T02:37:18.829Z,5.08
2018-01-01T02:38:18.449Z,5.09
2018-01-01T02:39:17.474Z,5.08
2018-01-01T02:40:19.252Z,5.15
2018-01-01T02:41:17.496Z,5.11
2018-01-01T02:42:19.113Z,5.15
2018-01-01T02:43:19.394Z,5.2
2018-01-01T02:44:18.699Z,5.12
2018-01-01T02:45:18.396Z,5.19
2018-01-01T02:46:18.669Z,5.17
2018-01-01T02:47:18.480Z,5.19
2018-01-01T02:48:18.803Z,5.17
2018-01-01T02:49:19.169Z,5.17
2018-01-01T02:50:19.318Z,5.19
2018-01-01T02:51:18.621Z,5.15
2018-01-01T02:52:18.773Z,5.12
2018-01-01T02:53:19.272Z,5.2
2018-01-01T02:54:19.358Z,5.15
2018-01-01T02:55:17.571Z,5.14
2018-01-01T02:56:19.263Z,5.1
2018-01-01T02:57:17.260Z,5.14
2018-01-01T02:58:17.560Z,5.15
2018-01-01T02:59:17.349Z,5.11
2018-01-01T03:00:17.365Z,4.99
2018-01-01T03:01:17.422Z,5.04
2018-01-01T03:02:19.343Z,5.18
2018-01-01T03:03:17.411Z,5.2
2018-01-01T03:04:18.549Z,5.26
2018-01-01T03:05:18.988Z,5.35
2018-01-01T03:06:18.906Z,5.41
2018-01-01T03:07:19.084Z,5.4
2018-01-01T03:08:19.231Z,5.46
2018-01-01T03:09:19.422Z,5.45
2018-01-01T03:10:19.077Z,5.45
2018-01-01T03:11:19.370Z,5.44
2018-01-01T03:12:19.190Z,5.39
2018-01-01T03:13:19.196Z,5.37
2018-01-01T03:14:19.472Z,5.35
2018-01-01T03:15:19.546Z,5.31
2018-01-01T03:16:19.694Z,5.34
2018-01-01T03:17:19.798Z,5.26
2018-01-01T03:18:19.935Z,5.24
2018-01-01T03:19:19.435Z,5.2
2018-01-01T03:20:19.465Z,5.14
2018-01-01T03:21:19.736Z,5.16
2018-01-01T03:22:19.630Z,5.14
2018-01-01T03:23:19.668Z,5.07
2018-01-01T03:24:19.620Z,5.12
2018-01-01T03:25:19.762Z,5.1
2018-01-01T03:26:19.822Z,5.14
2018-01-01T03:27:19.826Z,5.1
2018-01-01T03:28:19.806Z,5.11
2018-01-01T03:29:19.855Z,5.06
2018-01-01T03:30:19.514Z,5.06
2018-01-01T03:31:19.563Z,5.03
2018-01-01T03:32:19.046Z,5.01
2018-01-01T03:33:18.872Z,5
2018-01-01T03:34:19.861Z,4.85
2018-01-01T03:35:19.086Z,4.84
2018-01-01T03:36:18.902Z,4.78
2018-01-01T03:37:19.792Z,4.73
2018-01-01T03:38:19.716Z,4.66
2018-01-01T03:39:19.639Z,4.57
2018-01-01T03:40:19.374Z,4.51
2018-01-01T03:41:19.360Z,4.57
2018-01-01T03:42:19.087Z,4.48
2018-01-01T03:43:19.198Z,4.44
2018-01-01T03:44:19.411Z,4.45
2018-01-01T03:45:19.578Z,4.34
2018-01-01T03:46:19.858Z,4.33
2018-01-01T03:47:19.704Z,4.35
2018-01-01T03:48:19.683Z,4.21
2018-01-01T03:49:19.992Z,4.22
2018-01-01T03:50:20.058Z,4.26
2018-01-01T03:51:19.854Z,4.24
2018-01-01T03:52:19.286Z,4.2
2018-01-01T03:53:19.147Z,4.12
2018-01-01T03:54:19.396Z,4.09
2018-01-01T03:55:19.187Z,4.12
2018-01-01T03:56:19.546Z,4.11
2018-01-01T03:57:19.422Z,4.17
2018-01-01T03:58:19.644Z,4.12
2018-01-01T03:59:19.554Z,4.17
2018-01-01T04:00:19.771Z,4.25
2018-01-01T04:01:19.864Z,4.15
2018-01-01T04:02:19.714Z,4.23
2018-01-01T04:03:19.544Z,4.23
2018-01-01T04:04:19.532Z,4.33
2018-01-01T04:05:19.477Z,4.33
2018-01-01T04:06:19.554Z,4.35
2018-01-01T04:07:18.787Z,4.28
2018-01-01T04:08:19.160Z,4.37
2018-01-01T04:09:18.787Z,4.35
2018-01-01T04:10:18.931Z,4.41
2018-01-01T04:11:19.094Z,4.37
2018-01-01T04:12:19.589Z,4.36
2018-01-01T04:13:18.827Z,4.38
2018-01-01T04:15:19.183Z,4.39
2018-01-01T04:16:19.506Z,4.45
2018-01-01T04:17:19.071Z,4.39
2018-01-01T04:18:19.398Z,4.43
2018-01-01T04:19:18.835Z,4.46
2018-01-01T04:20:19.029Z,4.37
2018-01-01T04:21:18.816Z,4.44
2018-01-01T04:22:18.937Z,4.43
2018-01-01T04:23:18.887Z,4.36
2018-01-01T04:24:19.140Z,4.35
2018-01-01T04:25:19.626Z,4.37
2018-01-01T04:26:19.232Z,4.42
2018-01-01T04:27:19.651Z,4.39
2018-01-01T04:28:19.262Z,4.4
2018-01-01T04:29:19.068Z,4.42
2018-01-01T04:30:19.653Z,4.43
2018-01-01T04:31:19.104Z,4.4
2018-01-01T04:32:19.312Z,4.37
2018-01-01T04:33:19.379Z,4.35
2018-01-01T04:34:19.417Z,4.36
2018-01-01T04:35:18.812Z,4.29
2018-01-01T04:36:19.148Z,4.22
2018-01-01T04:37:17.604Z,4.29
2018-01-01T04:38:19.153Z,4.27
2018-01-01T04:39:19.297Z,4.29
2018-01-01T04:40:19.312Z,4.25
2018-01-01T04:41:19.578Z,4.28
2018-01-01T04:42:19.231Z,4.28
2018-01-01T04:43:19.408Z,4.33
2018-01-01T04:44:18.729Z,4.34
2018-01-01T04:45:19.101Z,4.32
2018-01-01T04:46:19.508Z,4.33
2018-01-01T04:47:18.747Z,4.35
2018-01-01T04:48:18.910Z,4.42
2018-01-01T04:49:19.103Z,4.46
2018-01-01T04:50:18.889Z,4.41
2018-01-01T04:51:19.016Z,4.41
2018-01-01T04:52:19.358Z,4.45
2018-01-01T04:53:18.925Z,4.44
2018-01-01T04:54:19.098Z,4.43
2018-01-01T04:55:19.285Z,4.43
2018-01-01T04:56:19.505Z,4.43
2018-01-01T04:57:18.945Z,4.45
2018-01-01T04:58:19.155Z,4.44
2018-01-01T04:59:19.264Z,4.46
2018-01-01T05:00:19.447Z,4.43
2018-01-01T05:01:17.537Z,4.43
2018-01-01T05:02:19.017Z,4.44
2018-01-01T05:03:19.151Z,4.45
2018-01-01T05:04:19.325Z,4.45
2018-01-01T05:05:18.915Z,4.47
2018-01-01T05:06:19.245Z,4.47
2018-01-01T05:07:19.409Z,4.48
2018-01-01T05:08:18.921Z,4.49
2018-01-01T05:09:18.529Z,4.51
2018-01-01T05:10:18.740Z,4.54
2018-01-01T05:11:19.243Z,4.58
2018-01-01T05:12:17.432Z,4.62
2018-01-01T05:13:18.918Z,4.6
2018-01-01T05:14:17.538Z,4.65
2018-01-01T05:15:18.876Z,4.78
2018-01-01T05:16:19.227Z,4.89
2018-01-01T05:17:19.456Z,4.9
2018-01-01T05:18:18.855Z,4.92
2018-01-01T05:19:18.992Z,4.96
2018-01-01T05:20:19.174Z,5
2018-01-01T05:21:19.385Z,4.97
2018-01-01T05:22:18.937Z,5.06
2018-01-01T05:23:19.391Z,4.96
2018-01-01T05:24:17.620Z,5.01
2018-01-01T05:25:17.382Z,4.91
2018-01-01T05:26:18.677Z,4.85
2018-01-01T05:27:19.282Z,4.81
2018-01-01T05:28:17.605Z,4.76
2018-01-01T05:29:19.300Z,4.81
2018-01-01T05:30:19.420Z,4.84
2018-01-01T05:31:17.608Z,4.76
2018-01-01T05:32:17.645Z,4.67
2018-01-01T05:33:19.571Z,4.65
2018-01-01T05:34:17.618Z,4.54
2018-01-01T05:35:17.477Z,4.63
2018-01-01T05:36:18.819Z,4.58
2018-01-01T05:37:18.857Z,4.51
2018-01-01T05:38:19.224Z,4.43
2018-01-01T05:39:19.605Z,4.4
2018-01-01T05:40:19.936Z,4.36
2018-01-01T05:41:20.064Z,4.24
2018-01-01T05:42:19.337Z,4.2
2018-01-01T05:43:19.767Z,4.21
2018-01-01T05:44:20.224Z,4.17
2018-01-01T05:45:19.707Z,4.13
2018-01-01T05:46:19.763Z,4.11
2018-01-01T05:47:19.859Z,4.1
2018-01-01T05:48:19.434Z,4.15
2018-01-01T05:49:19.660Z,4.01
2018-01-01T05:50:20.383Z,3.93
2018-01-01T05:51:19.806Z,3.95
2018-01-01T05:52:20.121Z,3.89
2018-01-01T05:53:19.413Z,3.86
2018-01-01T05:54:19.649Z,3.89
2018-01-01T05:55:19.889Z,3.9
2018-01-01T05:56:20.411Z,3.83
2018-01-01T05:57:19.938Z,3.74
2018-01-01T05:58:20.384Z,3.78
2018-01-01T05:59:19.688Z,3.85
2018-01-01T06:00:19.783Z,3.74
2018-01-01T06:01:20.006Z,3.8
2018-01-01T06:02:20.196Z,3.69
2018-01-01T06:03:19.410Z,3.68
2018-01-01T06:04:19.193Z,3.64
2018-01-01T06:05:19.455Z,3.59
2018-01-01T06:06:19.738Z,3.64
2018-01-01T06:07:20.108Z,3.74
2018-01-01T06:08:17.355Z,3.63
2018-01-01T06:09:18.975Z,3.59
2018-01-01T06:10:19.347Z,3.61
2018-01-01T06:11:18.778Z,3.63
2018-01-01T06:12:18.539Z,3.66
2018-01-01T06:13:18.926Z,3.67
2018-01-01T06:14:19.339Z,3.57
2018-01-01T06:15:17.484Z,3.58
2018-01-01T06:16:18.789Z,3.56
2018-01-01T06:17:18.791Z,3.51
2018-01-01T06:18:19.326Z,3.67
2018-01-01T06:19:17.649Z,3.55
2018-01-01T06:20:17.459Z,3.56
2018-01-01T06:21:18.942Z,3.57
2018-01-01T06:22:19.250Z,3.51
2018-01-01T06:23:17.405Z,3.52
2018-01-01T06:24:17.479Z,3.51
2018-01-01T06:25:17.572Z,3.39
2018-01-01T06:26:17.479Z,3.39
2018-01-01T06:27:19.110Z,3.31
2018-01-01T06:28:19.410Z,3.29
2018-01-01T06:29:17.482Z,3.34
2018-01-01T06:30:17.580Z,3.36
2018-01-01T06:31:17.395Z,3.33
2018-01-01T06:32:17.645Z,3.3
2018-01-01T06:33:17.469Z,3.35
2018-01-01T06:34:19.135Z,3.34
2018-01-01T06:35:19.370Z,3.36
2018-01-01T06:36:17.656Z,3.42
2018-01-01T06:37:18.859Z,3.43
2018-01-01T06:38:18.952Z,3.47
2018-01-01T06:40:26.973Z,3.49
2018-01-01T06:41:18.946Z,3.45
2018-01-01T06:42:19.046Z,3.43
2018-01-01T06:43:18.831Z,3.39
2018-01-01T06:44:19.695Z,3.43
2018-01-01T06:45:19.516Z,3.41
2018-01-01T06:46:19.318Z,3.37
2018-01-01T06:47:19.307Z,3.42
2018-01-01T06:48:19.372Z,3.37
2018-01-01T06:49:19.865Z,3.37
2018-01-01T06:50:19.693Z,3.34
2018-01-01T06:51:19.667Z,3.32
2018-01-01T06:52:19.771Z,3.35
2018-01-01T06:53:19.901Z,3.3
2018-01-01T06:54:18.972Z,3.33
2018-01-01T06:55:18.410Z,3.3
2018-01-01T06:56:19.826Z,3.35
2018-01-01T06:57:19.954Z,3.37
2018-01-01T06:58:18.998Z,3.29
2018-01-01T06:59:18.978Z,3.28
2018-01-01T07:00:19.329Z,3.26
2018-01-01T07:01:19.310Z,3.28
2018-01-01T07:02:19.321Z,3.32
2018-01-01T07:03:19.224Z,3.25
2018-01-01T07:04:19.136Z,3.27
2018-01-01T07:05:19.248Z,3.28
2018-01-01T07:06:18.795Z,3.27
2018-01-01T07:07:19.710Z,3.26
2018-01-01T07:08:19.321Z,3.24
2018-01-01T07:09:19.400Z,3.21
2018-01-01T07:10:19.488Z,3.22
2018-01-01T07:11:19.457Z,3.23
2018-01-01T07:12:19.389Z,3.19
2018-01-01T07:13:19.471Z,3.19
2018-01-01T07:14:19.580Z,3.18
2018-01-01T07:15:19.530Z,3.18
2018-01-01T07:16:19.974Z,3.21
2018-01-01T07:17:18.854Z,3.17
2018-01-01T07:18:19.192Z,3.14
2018-01-01T07:19:19.535Z,3.16
2018-01-01T07:22:22.663Z,3.2
2018-01-01T07:23:18.768Z,3.2
2018-01-01T07:24:20.018Z,3.17
2018-01-01T07:27:37.167Z,3.1
2018-01-01T07:28:19.268Z,3.1
2018-01-01T07:29:19.562Z,3.1
2018-01-01T07:30:19.529Z,3.09
2018-01-01T07:31:19.440Z,3.1
2018-01-01T07:32:19.079Z,3.08
2018-01-01T07:33:19.282Z,3.07
2018-01-01T07:34:19.158Z,3.09
2018-01-01T07:35:19.116Z,3.06
2018-01-01T07:36:19.042Z,3.05
2018-01-01T07:37:19.083Z,3.07
2018-01-01T07:38:18.943Z,3.09
2018-01-01T07:39:18.900Z,3.04
2018-01-01T07:40:18.819Z,3.02
2018-01-01T07:41:19.732Z,2.99
2018-01-01T07:42:19.599Z,3.02
2018-01-01T07:43:19.171Z,2.97
2018-01-01T07:44:18.742Z,2.95
2018-01-01T07:45:19.552Z,3
2018-01-01T07:46:19.979Z,3.05
2018-01-01T07:47:19.148Z,3.03
2018-01-01T07:48:18.983Z,2.96
2018-01-01T07:49:19.100Z,2.96
2018-01-01T07:50:19.059Z,2.94
2018-01-01T07:51:18.961Z,2.96
2018-01-01T07:52:19.338Z,2.95
2018-01-01T07:53:19.327Z,2.93
2018-01-01T07:54:19.030Z,2.97
2018-01-01T07:55:19.600Z,2.94
2018-01-01T07:56:19.550Z,2.9
2018-01-01T07:57:19.302Z,2.9
2018-01-01T07:58:19.228Z,2.87
2018-01-01T07:59:19.303Z,2.83
2018-01-01T08:00:19.433Z,2.9
2018-01-01T08:01:19.118Z,2.84
2018-01-01T08:02:18.980Z,2.83
2018-01-01T08:03:19.221Z,2.89
2018-01-01T08:04:19.145Z,2.85
2018-01-01T08:05:19.374Z,2.89
2018-01-01T08:06:19.256Z,2.92
2018-01-01T08:07:19.338Z,2.94
2018-01-01T08:08:19.384Z,2.93
2018-01-01T08:09:18.672Z,2.95
2018-01-01T08:10:18.737Z,2.98
2018-01-01T08:11:18.875Z,2.97
2018-01-01T08:12:18.941Z,2.92
2018-01-01T08:13:18.939Z,2.96
2018-01-01T08:14:18.839Z,2.93
2018-01-01T08:15:18.762Z,2.93
2018-01-01T08:16:18.529Z,2.9
2018-01-01T08:17:19.383Z,2.92
2018-01-01T08:18:19.465Z,2.86
2018-01-01T08:19:19.386Z,2.93
2018-01-01T08:20:19.499Z,2.9
2018-01-01T08:21:18.836Z,2.9
2018-01-01T08:22:18.942Z,2.91
2018-01-01T08:23:19.063Z,2.92
2018-01-01T08:24:18.953Z,2.9
2018-01-01T08:25:19.139Z,2.9
2018-01-01T08:26:18.958Z,2.88
2018-01-01T08:27:19.675Z,2.91
2018-01-01T08:28:18.847Z,2.89
2018-01-01T08:29:18.747Z,2.86
2018-01-01T08:30:19.023Z,2.87
2018-01-01T08:31:18.861Z,2.85
2018-01-01T08:32:18.912Z,2.88
2018-01-01T08:33:19.127Z,2.85
2018-01-01T08:34:19.098Z,2.89
2018-01-01T08:35:19.105Z,2.87
2018-01-01T08:36:19.113Z,2.9
2018-01-01T08:37:18.639Z,2.91
2018-01-01T08:38:18.867Z,2.88
2018-01-01T08:39:18.574Z,2.87
2018-01-01T08:40:19.680Z,2.87
2018-01-01T08:41:19.553Z,2.92
2018-01-01T08:42:19.477Z,2.91
2018-01-01T08:43:19.472Z,2.89
2018-01-01T08:44:19.366Z,2.94
2018-01-01T08:45:19.548Z,2.93
2018-01-01T08:46:19.131Z,2.89
2018-01-01T08:49:21.634Z,2.94
2018-01-01T08:50:18.744Z,2.89
2018-01-01T08:51:18.665Z,2.97
2018-01-01T08:52:18.607Z,2.99
2018-01-01T08:53:18.474Z,2.91
2018-01-01T08:54:18.508Z,2.99
2018-01-01T08:55:18.433Z,2.96
2018-01-01T08:57:18.136Z,3.02
2018-01-01T08:58:18.285Z,3.05
2018-01-01T08:59:18.429Z,3.05
2018-01-01T09:00:18.711Z,3.01
2018-01-01T09:01:18.171Z,3.08
2018-01-01T09:02:18.508Z,3.04
2018-01-01T09:03:18.719Z,3.05
2018-01-01T09:04:18.818Z,3.04
2018-01-01T09:05:18.218Z,3.13
2018-01-01T09:06:18.465Z,3.2
2018-01-01T09:07:18.926Z,3.1
2018-01-01T09:08:18.343Z,3.14
2018-01-01T09:09:18.777Z,3.12
2018-01-01T09:10:18.170Z,3.18
2018-01-01T09:11:18.700Z,3.19
2018-01-01T09:12:18.176Z,3.32
2018-01-01T09:13:18.693Z,3.2
2018-01-01T09:14:18.176Z,3.3
2018-01-01T09:15:18.372Z,3.3
2018-01-01T09:16:17.764Z,3.2
2018-01-01T09:17:17.943Z,3.27
2018-01-01T09:18:18.323Z,3.17
2018-01-01T09:19:18.759Z,3.2
2018-01-01T09:20:17.989Z,3.18
2018-01-01T09:21:18.123Z,3.25
2018-01-01T09:22:17.977Z,3.23
2018-01-01T09:23:18.364Z,3.28
2018-01-01T09:24:18.796Z,3.24
2018-01-01T09:25:18.211Z,3.35
2018-01-01T09:26:18.485Z,3.38
2018-01-01T09:27:18.625Z,3.41
2018-01-01T09:28:17.932Z,3.37
2018-01-01T09:29:18.079Z,3.31
2018-01-01T09:30:18.250Z,3.37
2018-01-01T09:31:18.287Z,3.4
2018-01-01T09:32:18.462Z,3.3
2018-01-01T09:33:18.682Z,3.31
2018-01-01T09:34:18.032Z,3.33
2018-01-01T09:35:18.200Z,3.35
2018-01-01T09:36:18.456Z,3.28
2018-01-01T09:37:17.924Z,3.18
2018-01-01T09:38:18.231Z,3.24
2018-01-01T09:39:18.548Z,3.28
2018-01-01T09:40:18.688Z,3.25
2018-01-01T09:41:17.886Z,3.24
2018-01-01T09:42:18.217Z,3.15
2018-01-01T09:43:18.537Z,3.12
2018-01-01T09:44:18.580Z,3.16
2018-01-01T09:45:17.810Z,3.14
2018-01-01T09:46:18.055Z,3.07
2018-01-01T09:47:18.308Z,3.08
2018-01-01T09:48:18.477Z,3.14
2018-01-01T09:49:17.719Z,3.07
2018-01-01T09:50:18.575Z,3.14
2018-01-01T09:51:18.336Z,3.16
2018-01-01T09:52:18.824Z,3.16
2018-01-01T09:53:18.318Z,3.21
2018-01-01T09:54:18.503Z,3.18
2018-01-01T09:55:17.899Z,3.05
2018-01-01T09:56:18.252Z,3.04
2018-01-01T09:57:18.524Z,3.14
2018-01-01T09:58:18.866Z,3.12
2018-01-01T09:59:18.099Z,3.06
2018-01-01T10:00:18.327Z,3.08
2018-01-01T10:01:18.799Z,3.05
2018-01-01T10:02:18.264Z,3.07
2018-01-01T10:03:18.511Z,3.05
2018-01-01T10:04:18.062Z,2.93
2018-01-01T10:05:18.839Z,2.99
2018-01-01T10:06:18.203Z,3.02
2018-01-01T10:07:18.774Z,2.89
2018-01-01T10:08:18.265Z,3.13
2018-01-01T10:09:18.558Z,3.17
2018-01-01T10:10:18.718Z,3
2018-01-01T10:11:19.277Z,3.11
2018-01-01T10:12:18.423Z,3.11
2018-01-01T10:13:18.744Z,2.89
2018-01-01T10:14:18.059Z,3.09
2018-01-01T10:15:18.281Z,3.06
2018-01-01T10:16:18.688Z,3.01
2018-01-01T10:17:18.231Z,3.33
2018-01-01T10:18:18.493Z,3.21
2018-01-01T10:19:18.755Z,3.26
2018-01-01T10:20:18.170Z,3.35
2018-01-01T10:21:18.531Z,3.31
2018-01-01T10:22:18.726Z,3.38
2018-01-01T10:23:18.978Z,3.31
2018-01-01T10:24:18.295Z,3.24
2018-01-01T10:25:18.628Z,3.12
2018-01-01T10:26:18.442Z,3.24
2018-01-01T10:27:18.930Z,3.36
2018-01-01T10:28:20.427Z,3.3
2018-01-01T10:29:20.066Z,3.21
2018-01-01T10:30:19.917Z,3.21
2018-01-01T10:31:18.523Z,3.31
2018-01-01T10:32:19.055Z,3.31
2018-01-01T10:33:18.432Z,3.15
2018-01-01T10:34:18.677Z,3.03
2018-01-01T10:35:18.566Z,3.11
2018-01-01T10:36:19.064Z,2.97
2018-01-01T10:37:18.771Z,3.01
2018-01-01T10:38:26.662Z,3.06
2018-01-01T10:39:18.986Z,3.06
2018-01-01T10:40:18.449Z,2.74
2018-01-01T10:41:19.362Z,2.73
2018-01-01T10:42:18.772Z,2.76
2018-01-01T10:43:18.411Z,2.76
2018-01-01T10:44:18.846Z,2.84
2018-01-01T10:45:17.992Z,2.87
2018-01-01T10:46:18.250Z,2.75
2018-01-01T10:47:18.011Z,2.87
2018-01-01T10:48:19.302Z,2.96
2018-01-01T10:49:18.542Z,2.86
2018-01-01T10:50:18.039Z,3.06
2018-01-01T10:51:18.219Z,2.96
2018-01-01T10:52:18.639Z,2.73
2018-01-01T10:53:19.046Z,2.76
2018-01-01T10:54:18.308Z,2.88
2018-01-01T10:55:18.527Z,2.93
2018-01-01T10:56:18.650Z,3.02
2018-01-01T10:57:18.951Z,2.83
2018-01-01T10:59:22.213Z,3.06
2018-01-01T11:00:18.304Z,3.04
2018-01-01T11:01:18.264Z,2.96
2018-01-01T11:02:18.395Z,3.03
2018-01-01T11:03:19.540Z,2.96
2018-01-01T11:04:18.873Z,2.93
2018-01-01T11:05:18.099Z,3.17
2018-01-01T11:06:18.056Z,3.2
2018-01-01T11:07:18.188Z,3.01
2018-01-01T11:08:18.393Z,3.14
2018-01-01T11:09:18.566Z,3.2
2018-01-01T11:10:18.559Z,3.09
2018-01-01T11:11:18.484Z,3.18
2018-01-01T11:12:17.571Z,3.1
2018-01-01T11:13:18.442Z,3.08
2018-01-01T11:16:25.328Z,3.2
2018-01-01T11:17:25.240Z,3.16
2018-01-01T11:18:25.198Z,3.05
2018-01-01T11:19:26.285Z,3.02
2018-01-01T11:20:25.472Z,2.81
2018-01-01T11:21:25.468Z,2.85
2018-01-01T11:22:25.522Z,3.07
2018-01-01T11:23:25.486Z,3.05
2018-01-01T11:24:25.662Z,3.13
2018-01-01T11:25:25.720Z,3.03
2018-01-01T11:26:25.985Z,3.13
2018-01-01T11:27:26.108Z,3.07
2018-01-01T11:28:25.316Z,2.83
2018-01-01T11:29:25.244Z,2.99
2018-01-01T11:30:25.350Z,3.04
2018-01-01T11:31:25.623Z,3.01
2018-01-01T11:32:25.781Z,2.95
2018-01-01T11:33:25.825Z,2.95
2018-01-01T11:34:26.081Z,2.83
2018-01-01T11:35:26.249Z,3.02
2018-01-01T11:36:25.404Z,3.09
2018-01-01T11:37:25.499Z,3.07
2018-01-01T11:38:25.453Z,3.08
2018-01-01T11:39:25.409Z,2.85
2018-01-01T11:40:25.601Z,2.83
2018-01-01T11:41:25.708Z,2.74
2018-01-01T11:42:25.774Z,2.97
2018-01-01T11:43:25.745Z,2.86
2018-01-01T11:44:25.882Z,2.58
2018-01-01T11:45:25.976Z,2.87
2018-01-01T11:46:25.425Z,2.93
2018-01-01T11:47:25.452Z,2.75
2018-01-01T11:48:25.557Z,2.87
2018-01-01T11:49:25.606Z,2.72
2018-01-01T11:50:25.743Z,2.8
2018-01-01T11:51:25.762Z,2.68
2018-01-01T11:52:25.893Z,2.82
2018-01-01T11:53:25.859Z,2.81
2018-01-01T11:54:26.026Z,2.61
2018-01-01T11:55:26.065Z,2.74
2018-01-01T11:56:26.220Z,2.78
2018-01-01T11:57:26.279Z,2.66
2018-01-01T11:58:26.328Z,2.66
2018-01-01T11:59:26.470Z,2.48
2018-01-01T12:00:25.408Z,2.51
2018-01-01T12:01:26.293Z,2.64
2018-01-01T12:02:26.611Z,2.8
2018-01-01T12:03:26.688Z,2.96
2018-01-01T12:04:27.354Z,2.83
2018-01-01T12:05:27.167Z,2.78
2018-01-01T12:06:26.071Z,2.88
2018-01-01T12:07:26.159Z,2.82
2018-01-01T12:08:26.136Z,2.88
2018-01-01T12:09:26.198Z,2.72
2018-01-01T12:10:26.278Z,2.71
2018-01-01T12:11:26.714Z,2.65
2018-01-01T12:12:25.873Z,2.88
2018-01-01T12:13:25.841Z,3
2018-01-01T12:14:25.844Z,2.95
2018-01-01T12:15:25.792Z,2.86
2018-01-01T12:16:25.869Z,2.88
2018-01-01T12:17:26.841Z,2.87
2018-01-01T12:18:25.780Z,2.99
2018-01-01T12:19:26.704Z,2.9
2018-01-01T12:20:26.786Z,2.84
2018-01-01T12:21:26.790Z,3.06
2018-01-01T12:22:26.822Z,3.04
2018-01-01T12:23:26.817Z,3.12
2018-01-01T12:24:25.823Z,2.97
2018-01-01T12:25:26.750Z,3.08
2018-01-01T12:26:26.883Z,2.8
2018-01-01T12:27:25.976Z,2.87
2018-01-01T12:28:25.845Z,2.89
2018-01-01T12:29:25.854Z,2.88
2018-01-01T12:30:26.840Z,2.84
2018-01-01T12:31:26.754Z,3.1
2018-01-01T12:32:26.708Z,3.02
2018-01-01T12:33:26.855Z,2.95
2018-01-01T12:34:26.911Z,2.99
2018-01-01T12:35:26.448Z,2.73
2018-01-01T12:36:26.512Z,2.48
2018-01-01T12:37:26.669Z,2.26
2018-01-01T12:38:26.771Z,2.6
2018-01-01T12:39:25.914Z,2.55
2018-01-01T12:40:26.152Z,2.42
2018-01-01T12:41:26.344Z,2.76
2018-01-01T12:42:26.367Z,2.45
2018-01-01T12:43:26.496Z,2.73
2018-01-01T12:44:26.399Z,2.67
2018-01-01T12:45:26.413Z,2.72
2018-01-01T12:46:26.694Z,2.63
2018-01-01T12:47:25.759Z,2.65
2018-01-01T12:48:25.757Z,2.74
2018-01-01T12:49:25.893Z,2.7
2018-01-01T12:50:25.833Z,2.6
2018-01-01T12:51:25.925Z,2.6
2018-01-01T12:52:26.018Z,2.63
2018-01-01T12:53:26.076Z,2.65
2018-01-01T12:54:26.026Z,2.7
2018-01-01T12:55:26.103Z,2.69
2018-01-01T12:56:26.023Z,2.59
2018-01-01T12:57:26.166Z,2.81
2018-01-01T12:58:26.130Z,2.63
2018-01-01T12:59:26.216Z,2.53
2018-01-01T13:00:26.134Z,2.79
2018-01-01T13:01:26.238Z,2.62
2018-01-01T13:02:26.183Z,2.76
2018-01-01T13:03:26.184Z,2.83
2018-01-01T13:04:26.151Z,2.74
2018-01-01T13:05:26.261Z,2.56
2018-01-01T13:06:26.499Z,2.52
2018-01-01T13:07:25.594Z,2.57
2018-01-01T13:08:25.653Z,2.8
2018-01-01T13:09:25.703Z,2.38
2018-01-01T13:10:27.660Z,2.7
2018-01-01T13:11:26.570Z,2.75
2018-01-01T13:12:26.453Z,2.69
2018-01-01T13:13:25.467Z,2.59
2018-01-01T13:14:27.011Z,2.47
2018-01-01T13:15:26.990Z,2.66
2018-01-01T13:16:26.806Z,2.62
2018-01-01T13:17:26.784Z,2.63
2018-01-01T13:18:27.398Z,2.62
2018-01-01T13:19:27.084Z,2.57
2018-01-01T13:20:27.216Z,2.73
2018-01-01T13:21:27.323Z,2.65
2018-01-01T13:22:27.037Z,2.71
2018-01-01T13:23:26.924Z,2.54
2018-01-01T13:24:27.795Z,2.22
2018-01-01T13:25:27.436Z,2.33
2018-01-01T13:26:27.108Z,2.38
2018-01-01T13:27:26.908Z,2.32
2018-01-01T13:28:27.627Z,2.34
2018-01-01T13:29:27.555Z,2.36
2018-01-01T13:30:27.237Z,2.45
2018-01-01T13:31:26.921Z,2.48
2018-01-01T13:32:27.713Z,2.5
2018-01-01T13:33:27.268Z,2.74